createdAt,value
2023-02-11T00:02:01.515Z,101804.16
2023-02-11T00:05:05.564Z,101795.06
2023-02-11T00:08:08.756Z,101794.50
2023-02-11T00:11:17.616Z,101795.22
2023-02-11T00:14:20.951Z,101796.91
2023-02-11T00:17:24.224Z,101787.94
2023-02-11T00:20:27.283Z,101793.03
2023-02-11T00:23:31.332Z,101791.50
2023-02-11T00:26:36.030Z,101783.66
2023-02-11T00:29:39.706Z,101789.81
2023-02-11T00:32:42.823Z,101788.34
2023-02-11T00:35:47.545Z,101788.56
2023-02-11T00:38:53.464Z,101800.47
2023-02-11T00:41:59.130Z,101802.97
2023-02-11T00:45:04.658Z,101787.19
2023-02-11T00:48:08.132Z,101787.88
2023-02-11T00:51:12.092Z,101780.34
2023-02-11T00:54:15.631Z,101772.84
2023-02-11T00:57:19.391Z,101768.81
2023-02-11T01:00:22.953Z,101764.28
2023-02-11T01:03:26.421Z,101768.81
2023-02-11T01:06:31.222Z,101762.06
2023-02-11T01:09:34.336Z,101760.69
2023-02-11T01:12:38.114Z,101744.50
2023-02-11T01:15:41.508Z,101755.94
2023-02-11T01:18:44.992Z,101753.75
2023-02-11T01:21:48.261Z,101748.09
2023-02-11T01:24:51.793Z,101739.19
2023-02-11T01:27:55.023Z,101740.88
2023-02-11T01:30:58.884Z,101744.66
2023-02-11T01:34:03.596Z,101741.41
2023-02-11T01:37:07.356Z,101734.56
2023-02-11T01:40:16.939Z,101736.34
2023-02-11T01:43:21.845Z,101733.44
2023-02-11T01:46:36.621Z,101731.06
2023-02-11T01:49:46.650Z,101735.41
2023-02-11T01:52:49.892Z,101739.16
2023-02-11T08:06:41.905Z,101528.22
2023-02-11T08:09:45.702Z,101532.88
2023-02-11T08:12:48.856Z,101531.13
2023-02-11T08:15:52.585Z,101536.50
2023-02-11T08:18:57.812Z,101532.44
2023-02-11T08:22:01.540Z,101533.62
2023-02-11T08:25:04.823Z,101534.13
2023-02-11T08:28:09.429Z,101531.44
2023-02-11T08:31:16.803Z,101539.63
2023-02-11T08:34:20.291Z,101538.78
2023-02-11T08:37:24.753Z,101536.47
2023-02-11T08:40:29.688Z,101527.09
2023-02-11T08:43:33.571Z,101537.47
2023-02-11T08:46:37.551Z,101547.41
2023-02-11T08:49:42.516Z,101535.84
2023-02-11T08:52:45.879Z,101524.75
2023-02-11T08:55:53.449Z,101511.63
2023-02-11T08:58:56.981Z,101518.56
2023-02-11T09:02:00.213Z,101516.44
2023-02-11T09:05:03.807Z,101519.66
2023-02-11T09:08:07.007Z,101517.25
2023-02-11T09:11:11.276Z,101527.91
2023-02-11T09:14:20.593Z,101519.38
2023-02-11T11:08:52.897Z,101411.22
2023-02-11T11:20:29.502Z,101408.00
2023-02-11T11:23:32.434Z,101396.59
2023-02-11T11:26:44.876Z,101398.12
2023-02-11T11:29:53.688Z,101389.25
2023-02-11T11:32:56.909Z,101391.81
2023-02-11T11:36:04.864Z,101389.13
2023-02-11T11:39:24.647Z,101379.06
2023-02-11T11:42:33.414Z,101378.56
2023-02-11T11:45:36.467Z,101371.38
2023-02-11T11:48:41.641Z,101365.03
2023-02-11T11:51:51.506Z,101359.63
2023-02-11T11:55:00.601Z,101343.13
2023-02-11T11:58:04.872Z,101339.44
2023-02-11T12:01:13.250Z,101326.72
2023-02-11T12:04:41.865Z,101317.16
2023-02-11T12:08:03.426Z,101314.19
2023-02-11T12:11:21.694Z,101301.13
2023-02-11T12:14:43.276Z,101292.72
2023-02-11T12:18:01.902Z,101306.09
2023-02-11T12:21:17.555Z,101298.47
2023-02-11T12:24:37.187Z,101291.94
2023-02-11T12:27:54.625Z,101290.63
2023-02-11T12:31:04.954Z,101297.69
2023-02-11T12:34:17.408Z,101286.44
2023-02-11T12:37:42.840Z,101273.16
2023-02-11T12:41:10.336Z,101272.84
2023-02-11T12:44:52.333Z,101265.06
2023-02-11T12:48:07.514Z,101257.56
2023-02-11T12:51:35.979Z,101253.19
2023-02-11T12:54:53.394Z,101243.81
2023-02-11T12:57:59.918Z,101242.72
2023-02-11T13:01:15.394Z,101236.72
2023-02-11T13:04:47.762Z,101231.16
2023-02-11T13:07:52.136Z,101228.62
2023-02-11T13:10:58.229Z,101227.84
2023-02-11T13:14:14.716Z,101220.31
2023-02-11T13:17:26.540Z,101222.75
2023-02-11T13:20:29.613Z,101205.84
2023-02-11T13:23:51.140Z,101203.94
2023-02-11T13:27:33.388Z,101209.16
2023-02-11T13:30:41.464Z,101218.28
2023-02-11T13:33:46.284Z,101205.97
2023-02-11T13:36:57.308Z,101208.59
2023-02-11T13:40:01.326Z,101214.59
2023-02-11T13:43:06.927Z,101206.59
2023-02-11T13:46:12.924Z,101209.97
2023-02-11T13:49:21.001Z,101199.22
2023-02-11T13:52:32.687Z,101194.13
2023-02-11T13:55:36.513Z,101183.06
2023-02-11T13:58:50.225Z,101187.81
2023-02-11T14:02:11.992Z,101196.31
2023-02-11T14:05:34.259Z,101207.00
2023-02-11T14:09:11.286Z,101225.88
2023-02-11T14:12:31.549Z,101235.97
2023-02-11T14:15:41.695Z,101232.12
2023-02-11T14:18:50.113Z,101223.00
2023-02-11T14:21:52.950Z,101238.31
2023-02-11T14:25:01.220Z,101236.06
2023-02-11T14:28:13.598Z,101220.06
2023-02-11T14:31:44.019Z,101222.94
2023-02-11T14:35:15.890Z,101211.25
2023-02-11T14:38:43.569Z,101202.72
2023-02-11T14:41:49.580Z,101203.47
2023-02-11T14:44:57.121Z,101195.91
2023-02-11T14:48:17.434Z,101196.16
2023-02-11T14:51:27.659Z,101196.59
2023-02-11T14:54:32.560Z,101188.06
2023-02-11T14:57:38.079Z,101170.91
2023-02-11T15:00:53.918Z,101168.94
2023-02-11T15:03:59.847Z,101172.00
2023-02-11T15:07:08.122Z,101178.06
2023-02-11T15:10:23.645Z,101184.09
2023-02-11T15:13:31.211Z,101181.00
2023-02-11T15:16:35.706Z,101172.41
2023-02-11T15:19:41.840Z,101172.87
2023-02-11T15:22:46.786Z,101173.03
2023-02-11T15:25:56.497Z,101162.72
2023-02-11T15:29:02.164Z,101154.34
2023-02-11T15:32:09.761Z,101156.94
2023-02-11T15:35:15.113Z,101151.28
2023-02-11T15:38:19.067Z,101148.72
2023-02-11T15:41:36.622Z,101160.59
2023-02-11T15:44:40.488Z,101152.50
2023-02-11T15:47:51.453Z,101138.56
2023-02-11T15:51:02.737Z,101135.00
2023-02-11T15:54:22.368Z,101134.22
2023-02-11T15:57:28.065Z,101136.19
2023-02-11T16:00:36.996Z,101133.53
2023-02-11T16:03:43.068Z,101125.66
2023-02-11T16:06:48.397Z,101113.81
2023-02-11T16:09:58.096Z,101110.53
2023-02-11T16:13:08.401Z,101109.53
2023-02-11T16:16:20.718Z,101115.31
2023-02-11T16:19:27.421Z,101126.34
2023-02-11T16:22:35.961Z,101120.16
2023-02-11T16:25:44.522Z,101123.28
2023-02-11T16:28:50.809Z,101124.06
2023-02-11T16:32:06.229Z,101124.38
2023-02-11T16:35:12.158Z,101122.47
2023-02-11T16:38:17.845Z,101104.66
2023-02-11T16:41:22.656Z,101105.75
2023-02-11T16:44:27.211Z,101113.62
2023-02-11T16:47:32.040Z,101126.47
2023-02-11T16:50:37.694Z,101121.00
2023-02-11T16:53:41.585Z,101133.00
2023-02-11T16:56:45.509Z,101132.13
2023-02-11T16:59:50.735Z,101126.56
2023-02-11T17:02:56.243Z,101123.88
2023-02-11T17:06:05.412Z,101106.75
2023-02-11T17:09:21.189Z,101108.72
2023-02-11T17:12:25.675Z,101103.47
2023-02-11T17:15:30.518Z,101098.47
2023-02-11T17:18:34.687Z,101107.34
2023-02-11T17:21:38.507Z,101118.19
2023-02-11T17:24:43.112Z,101114.19
2023-02-11T17:27:47.229Z,101119.50
2023-02-11T17:30:54.882Z,101122.38
2023-02-11T17:33:58.816Z,101127.03
2023-02-11T17:37:09.538Z,101127.44
2023-02-11T17:40:15.029Z,101114.59
2023-02-11T17:43:21.175Z,101114.47
2023-02-11T17:46:25.380Z,101111.28
2023-02-11T17:49:30.334Z,101100.56
2023-02-11T17:52:34.376Z,101104.75
2023-02-11T17:55:39.141Z,101110.28
2023-02-11T17:58:43.396Z,101100.84
2023-02-11T18:01:47.687Z,101097.56
2023-02-11T18:04:56.056Z,101095.38
2023-02-11T18:08:01.069Z,101099.41
2023-02-11T18:11:11.999Z,101098.84
2023-02-11T18:14:21.564Z,101089.22
2023-02-11T18:17:26.709Z,101094.09
2023-02-11T18:20:32.692Z,101092.00
2023-02-11T18:23:37.264Z,101087.44
2023-02-11T18:26:42.297Z,101083.34
2023-02-11T18:29:46.522Z,101092.31
2023-02-11T18:32:56.325Z,101094.16
2023-02-11T18:36:02.869Z,101086.44
2023-02-11T18:39:07.218Z,101091.00
2023-02-11T18:42:13.247Z,101097.63
2023-02-11T18:45:17.497Z,101093.78
2023-02-11T18:48:22.877Z,101092.38
2023-02-11T18:51:27.767Z,101090.97
2023-02-11T18:54:35.837Z,101094.69
2023-02-11T18:57:41.809Z,101098.75
2023-02-11T19:00:48.284Z,101106.25
2023-02-11T19:03:55.751Z,101096.53
2023-02-11T19:07:06.055Z,101105.31
2023-02-11T19:10:10.824Z,101100.91
2023-02-11T19:13:15.479Z,101118.72
2023-02-11T19:16:20.355Z,101116.94
2023-02-11T19:19:26.456Z,101112.66
2023-02-11T19:22:30.636Z,101106.19
2023-02-11T19:25:37.809Z,101116.50
2023-02-11T19:28:42.249Z,101113.12
2023-02-11T19:31:47.076Z,101124.28
2023-02-11T19:34:52.913Z,101120.31
2023-02-11T19:37:57.850Z,101123.22
2023-02-11T19:41:01.954Z,101127.69
2023-02-11T19:44:10.169Z,101126.66
2023-02-11T19:47:16.583Z,101123.53
2023-02-11T19:50:21.092Z,101130.06
2023-02-11T19:53:25.717Z,101119.44
2023-02-11T19:56:30.598Z,101121.91
2023-02-11T19:59:34.585Z,101111.31
2023-02-11T20:02:41.029Z,101114.75
2023-02-11T20:05:48.962Z,101105.03
2023-02-11T20:09:01.542Z,101109.72
2023-02-11T20:12:05.454Z,101118.34
2023-02-11T20:15:10.344Z,101108.03
2023-02-11T20:18:14.818Z,101119.47
2023-02-11T20:21:27.420Z,101114.69
2023-02-11T20:24:34.171Z,101107.81
2023-02-11T20:27:39.419Z,101121.28
2023-02-11T20:30:45.488Z,101115.66
2023-02-11T20:33:51.618Z,101112.50
2023-02-11T20:36:59.655Z,101112.50
2023-02-11T20:40:03.967Z,101120.47
2023-02-11T20:43:08.529Z,101122.19
2023-02-11T20:46:17.874Z,101114.78
2023-02-11T20:49:24.891Z,101103.75
2023-02-11T20:52:29.497Z,101106.81
2023-02-11T20:55:39.600Z,101107.13
2023-02-11T20:58:43.765Z,101102.75
2023-02-11T21:01:51.145Z,101103.03
2023-02-11T21:04:55.487Z,101102.13
2023-02-11T21:08:00.249Z,101105.72
2023-02-11T21:11:04.441Z,101106.03
2023-02-11T21:14:12.668Z,101110.03
2023-02-11T21:17:16.418Z,101106.62
2023-02-11T21:20:24.269Z,101110.19
2023-02-11T21:23:29.573Z,101109.22
2023-02-11T21:26:36.044Z,101113.38
2023-02-11T21:29:52.622Z,101116.59
2023-02-11T21:33:03.333Z,101119.38
2023-02-11T21:36:08.566Z,101111.81
2023-02-11T21:39:19.458Z,101120.06
2023-02-11T21:42:24.507Z,101118.25
2023-02-11T21:45:30.214Z,101124.84
2023-02-11T21:48:35.610Z,101119.41
2023-02-11T21:51:39.894Z,101121.72
2023-02-11T21:54:42.892Z,101130.88
2023-02-11T21:57:47.132Z,101136.34
2023-02-11T22:00:50.802Z,101126.28
2023-02-11T22:03:54.986Z,101134.72
2023-02-11T22:06:58.601Z,101122.13
2023-02-11T22:10:03.895Z,101134.19
2023-02-11T22:13:07.457Z,101135.09
2023-02-11T22:16:15.317Z,101144.91
2023-02-11T22:19:19.059Z,101142.75
2023-02-11T22:22:22.654Z,101151.84
2023-02-11T22:25:25.748Z,101160.09
2023-02-11T22:28:30.195Z,101159.19
2023-02-11T22:31:34.900Z,101166.06
2023-02-11T22:34:38.136Z,101166.84
2023-02-11T22:37:41.871Z,101164.50
2023-02-11T22:40:45.034Z,101171.16
2023-02-11T22:43:48.784Z,101164.62
2023-02-11T22:46:52.830Z,101178.94
2023-02-11T22:49:56.933Z,101176.97
2023-02-11T22:53:00.375Z,101173.94
2023-02-11T22:56:08.583Z,101172.00
2023-02-11T22:59:14.198Z,101180.53
